sensor_id;sensor_type;location;lat;lon;timestamp;P1;durP1;ratioP1;P2;durP2;ratioP2
7017;SDS011;3549;42.162;24.726;2022-09-09T00:00:50;32.97;;;25.27;;
7017;SDS011;3549;42.162;24.726;2022-09-09T00:03:23;27.57;;;22.63;;
7017;SDS011;3549;42.162;24.726;2022-09-09T00:11:12;28.30;;;19.83;;
7017;SDS011;3549;42.162;24.726;2022-09-09T00:13:47;23.93;;;19.50;;
7017;SDS011;3549;42.162;24.726;2022-09-09T00:16:19;24.17;;;19.90;;
7017;SDS011;3549;42.162;24.726;2022-09-09T00:21:15;24.80;;;19.70;;
7017;SDS011;3549;42.162;24.726;2022-09-09T00:23:50;22.50;;;20.07;;
7017;SDS011;3549;42.162;24.726;2022-09-09T00:29:03;27.27;;;20.40;;
7017;SDS011;3549;42.162;24.726;2022-09-09T00:31:39;22.70;;;19.07;;
7017;SDS011;3549;42.162;24.726;2022-09-09T00:34:14;24.23;;;19.70;;
7017;SDS011;3549;42.162;24.726;2022-09-09T00:36:43;24.93;;;20.80;;
7017;SDS011;3549;42.162;24.726;2022-09-09T00:47:38;23.83;;;21.23;;
7017;SDS011;3549;42.162;24.726;2022-09-09T00:57:53;30.17;;;22.77;;
7017;SDS011;3549;42.162;24.726;2022-09-09T01:08:01;26.27;;;21.63;;
7017;SDS011;3549;42.162;24.726;2022-09-09T01:10:35;27.50;;;21.23;;
7017;SDS011;3549;42.162;24.726;2022-09-09T01:13:11;25.60;;;21.70;;
7017;SDS011;3549;42.162;24.726;2022-09-09T01:15:44;25.50;;;21.20;;
7017;SDS011;3549;42.162;24.726;2022-09-09T01:18:12;27.07;;;21.73;;
7017;SDS011;3549;42.162;24.726;2022-09-09T01:28:28;26.83;;;21.17;;
7017;SDS011;3549;42.162;24.726;2022-09-09T01:30:55;29.00;;;22.20;;
7017;SDS011;3549;42.162;24.726;2022-09-09T01:33:22;26.33;;;21.50;;
7017;SDS011;3549;42.162;24.726;2022-09-09T01:35:55;26.20;;;21.57;;
7017;SDS011;3549;42.162;24.726;2022-09-09T01:38:38;25.77;;;21.50;;
7017;SDS011;3549;42.162;24.726;2022-09-09T01:41:04;27.17;;;22.17;;
7017;SDS011;3549;42.162;24.726;2022-09-09T01:43:30;25.57;;;21.67;;
7017;SDS011;3549;42.162;24.726;2022-09-09T01:45:56;29.63;;;21.07;;
7017;SDS011;3549;42.162;24.726;2022-09-09T01:48:25;29.40;;;21.80;;
7017;SDS011;3549;42.162;24.726;2022-09-09T01:50:51;25.97;;;22.07;;
7017;SDS011;3549;42.162;24.726;2022-09-09T01:53:17;26.80;;;21.37;;
7017;SDS011;3549;42.162;24.726;2022-09-09T01:56:04;28.10;;;21.10;;
7017;SDS011;3549;42.162;24.726;2022-09-09T02:01:51;26.10;;;20.63;;
7017;SDS011;3549;42.162;24.726;2022-09-09T02:04:32;24.93;;;21.53;;
7017;SDS011;3549;42.162;24.726;2022-09-09T02:07:06;29.53;;;22.77;;
7017;SDS011;3549;42.162;24.726;2022-09-09T02:09:42;29.37;;;22.43;;
7017;SDS011;3549;42.162;24.726;2022-09-09T02:12:13;30.50;;;21.70;;
7017;SDS011;3549;42.162;24.726;2022-09-09T02:14:44;27.80;;;21.27;;
7017;SDS011;3549;42.162;24.726;2022-09-09T02:17:19;28.63;;;21.37;;
7017;SDS011;3549;42.162;24.726;2022-09-09T02:19:56;24.53;;;20.53;;
7017;SDS011;3549;42.162;24.726;2022-09-09T02:22:28;28.93;;;21.07;;
7017;SDS011;3549;42.162;24.726;2022-09-09T02:24:56;27.30;;;21.47;;
7017;SDS011;3549;42.162;24.726;2022-09-09T02:27:24;25.93;;;20.40;;
7017;SDS011;3549;42.162;24.726;2022-09-09T02:29:50;25.90;;;19.90;;
7017;SDS011;3549;42.162;24.726;2022-09-09T02:32:19;25.07;;;19.73;;
7017;SDS011;3549;42.162;24.726;2022-09-09T02:34:48;25.47;;;20.30;;
7017;SDS011;3549;42.162;24.726;2022-09-09T02:37:17;24.43;;;20.17;;
7017;SDS011;3549;42.162;24.726;2022-09-09T02:39:46;24.57;;;19.70;;
7017;SDS011;3549;42.162;24.726;2022-09-09T02:42:11;24.67;;;20.20;;
7017;SDS011;3549;42.162;24.726;2022-09-09T02:44:39;26.10;;;20.17;;
7017;SDS011;3549;42.162;24.726;2022-09-09T02:55:23;32.30;;;23.93;;
7017;SDS011;3549;42.162;24.726;2022-09-09T02:57:49;29.03;;;20.97;;
7017;SDS011;3549;42.162;24.726;2022-09-09T03:00:16;33.87;;;24.23;;
7017;SDS011;3549;42.162;24.726;2022-09-09T03:02:49;39.13;;;23.20;;
7017;SDS011;3549;42.162;24.726;2022-09-09T03:05:15;33.17;;;22.10;;
7017;SDS011;3549;42.162;24.726;2022-09-09T03:07:41;30.57;;;23.37;;
7017;SDS011;3549;42.162;24.726;2022-09-09T03:10:06;35.73;;;23.87;;
7017;SDS011;3549;42.162;24.726;2022-09-09T03:12:33;34.73;;;23.73;;
7017;SDS011;3549;42.162;24.726;2022-09-09T03:14:58;35.83;;;22.17;;
7017;SDS011;3549;42.162;24.726;2022-09-09T03:17:24;29.37;;;22.67;;
7017;SDS011;3549;42.162;24.726;2022-09-09T03:19:49;28.07;;;21.10;;
7017;SDS011;3549;42.162;24.726;2022-09-09T03:22:17;28.87;;;21.97;;
7017;SDS011;3549;42.162;24.726;2022-09-09T03:24:42;29.20;;;22.90;;
7017;SDS011;3549;42.162;24.726;2022-09-09T03:27:08;33.73;;;22.63;;
7017;SDS011;3549;42.162;24.726;2022-09-09T03:29:33;33.13;;;22.90;;
7017;SDS011;3549;42.162;24.726;2022-09-09T03:31:59;33.13;;;22.90;;
7017;SDS011;3549;42.162;24.726;2022-09-09T03:34:24;31.47;;;23.10;;
7017;SDS011;3549;42.162;24.726;2022-09-09T03:36:50;30.30;;;22.27;;
7017;SDS011;3549;42.162;24.726;2022-09-09T03:39:15;33.03;;;23.57;;
7017;SDS011;3549;42.162;24.726;2022-09-09T03:41:41;33.67;;;24.30;;
7017;SDS011;3549;42.162;24.726;2022-09-09T03:44:06;34.80;;;25.80;;
7017;SDS011;3549;42.162;24.726;2022-09-09T03:46:31;32.23;;;23.67;;
7017;SDS011;3549;42.162;24.726;2022-09-09T03:48:57;33.97;;;22.13;;
7017;SDS011;3549;42.162;24.726;2022-09-09T03:51:23;33.97;;;23.00;;
7017;SDS011;3549;42.162;24.726;2022-09-09T03:53:48;35.17;;;22.50;;
7017;SDS011;3549;42.162;24.726;2022-09-09T03:56:14;31.97;;;22.27;;
7017;SDS011;3549;42.162;24.726;2022-09-09T03:58:39;35.60;;;22.50;;
7017;SDS011;3549;42.162;24.726;2022-09-09T04:01:07;34.90;;;21.40;;
7017;SDS011;3549;42.162;24.726;2022-09-09T04:03:39;35.07;;;20.37;;
7017;SDS011;3549;42.162;24.726;2022-09-09T04:06:07;28.73;;;19.83;;
7017;SDS011;3549;42.162;24.726;2022-09-09T04:08:34;30.87;;;19.53;;
7017;SDS011;3549;42.162;24.726;2022-09-09T04:11:01;32.13;;;20.30;;
7017;SDS011;3549;42.162;24.726;2022-09-09T04:13:31;35.07;;;21.30;;
7017;SDS011;3549;42.162;24.726;2022-09-09T04:15:59;33.97;;;21.17;;
7017;SDS011;3549;42.162;24.726;2022-09-09T04:18:25;32.27;;;21.37;;
7017;SDS011;3549;42.162;24.726;2022-09-09T04:20:53;30.00;;;20.60;;
7017;SDS011;3549;42.162;24.726;2022-09-09T04:23:19;29.93;;;20.87;;
7017;SDS011;3549;42.162;24.726;2022-09-09T04:25:49;34.00;;;21.27;;
7017;SDS011;3549;42.162;24.726;2022-09-09T04:28:17;30.93;;;20.90;;
7017;SDS011;3549;42.162;24.726;2022-09-09T04:30:43;30.70;;;20.63;;
7017;SDS011;3549;42.162;24.726;2022-09-09T04:33:10;30.33;;;21.27;;
7017;SDS011;3549;42.162;24.726;2022-09-09T04:35:36;31.90;;;21.07;;
7017;SDS011;3549;42.162;24.726;2022-09-09T04:38:02;30.77;;;21.73;;
7017;SDS011;3549;42.162;24.726;2022-09-09T04:40:30;32.17;;;21.93;;
7017;SDS011;3549;42.162;24.726;2022-09-09T04:43:02;28.77;;;21.77;;
7017;SDS011;3549;42.162;24.726;2022-09-09T04:45:31;29.37;;;21.00;;
7017;SDS011;3549;42.162;24.726;2022-09-09T04:47:58;31.50;;;21.33;;
7017;SDS011;3549;42.162;24.726;2022-09-09T04:50:24;28.53;;;21.37;;
7017;SDS011;3549;42.162;24.726;2022-09-09T04:52:49;29.77;;;21.60;;
7017;SDS011;3549;42.162;24.726;2022-09-09T04:55:15;26.07;;;20.90;;
7017;SDS011;3549;42.162;24.726;2022-09-09T04:57:40;35.37;;;21.60;;
7017;SDS011;3549;42.162;24.726;2022-09-09T05:00:06;31.67;;;20.73;;
7017;SDS011;3549;42.162;24.726;2022-09-09T05:02:32;25.40;;;20.57;;
7017;SDS011;3549;42.162;24.726;2022-09-09T05:05:01;23.77;;;19.47;;
7017;SDS011;3549;42.162;24.726;2022-09-09T05:07:27;29.50;;;20.23;;
7017;SDS011;3549;42.162;24.726;2022-09-09T05:09:53;30.23;;;20.87;;
7017;SDS011;3549;42.162;24.726;2022-09-09T05:12:19;29.20;;;20.80;;
7017;SDS011;3549;42.162;24.726;2022-09-09T05:14:44;28.00;;;20.53;;
7017;SDS011;3549;42.162;24.726;2022-09-09T05:17:10;30.73;;;21.70;;
7017;SDS011;3549;42.162;24.726;2022-09-09T05:19:36;30.57;;;20.93;;
7017;SDS011;3549;42.162;24.726;2022-09-09T05:22:02;29.93;;;21.37;;
7017;SDS011;3549;42.162;24.726;2022-09-09T05:24:28;29.40;;;20.30;;
7017;SDS011;3549;42.162;24.726;2022-09-09T05:26:54;25.20;;;21.20;;
7017;SDS011;3549;42.162;24.726;2022-09-09T05:29:23;32.00;;;21.27;;
7017;SDS011;3549;42.162;24.726;2022-09-09T05:31:48;29.53;;;22.27;;
7017;SDS011;3549;42.162;24.726;2022-09-09T05:34:13;30.77;;;20.93;;
7017;SDS011;3549;42.162;24.726;2022-09-09T05:36:39;26.90;;;21.13;;
7017;SDS011;3549;42.162;24.726;2022-09-09T05:39:04;26.63;;;20.20;;
7017;SDS011;3549;42.162;24.726;2022-09-09T05:41:30;24.50;;;19.40;;
7017;SDS011;3549;42.162;24.726;2022-09-09T05:43:56;26.13;;;20.67;;
7017;SDS011;3549;42.162;24.726;2022-09-09T05:46:24;25.30;;;19.77;;
7017;SDS011;3549;42.162;24.726;2022-09-09T05:48:52;28.43;;;19.57;;
7017;SDS011;3549;42.162;24.726;2022-09-09T05:51:20;26.07;;;19.17;;
7017;SDS011;3549;42.162;24.726;2022-09-09T05:53:47;25.17;;;18.17;;
7017;SDS011;3549;42.162;24.726;2022-09-09T05:56:14;22.37;;;17.20;;
7017;SDS011;3549;42.162;24.726;2022-09-09T05:58:41;21.50;;;16.43;;
7017;SDS011;3549;42.162;24.726;2022-09-09T06:01:25;23.13;;;16.63;;
7017;SDS011;3549;42.162;24.726;2022-09-09T06:03:52;25.73;;;16.83;;
7017;SDS011;3549;42.162;24.726;2022-09-09T06:06:19;25.73;;;16.50;;
7017;SDS011;3549;42.162;24.726;2022-09-09T06:08:46;22.83;;;16.20;;
7017;SDS011;3549;42.162;24.726;2022-09-09T06:11:19;22.30;;;15.83;;
7017;SDS011;3549;42.162;24.726;2022-09-09T06:13:47;28.00;;;17.10;;
7017;SDS011;3549;42.162;24.726;2022-09-09T06:16:14;25.97;;;15.93;;
7017;SDS011;3549;42.162;24.726;2022-09-09T06:18:41;25.20;;;16.63;;
7017;SDS011;3549;42.162;24.726;2022-09-09T06:21:20;25.47;;;16.63;;
7017;SDS011;3549;42.162;24.726;2022-09-09T06:23:47;27.90;;;17.40;;
7017;SDS011;3549;42.162;24.726;2022-09-09T06:26:16;23.40;;;17.13;;
7017;SDS011;3549;42.162;24.726;2022-09-09T06:28:44;26.00;;;16.00;;
7017;SDS011;3549;42.162;24.726;2022-09-09T06:31:11;25.93;;;16.70;;
7017;SDS011;3549;42.162;24.726;2022-09-09T06:33:38;24.37;;;16.63;;
7017;SDS011;3549;42.162;24.726;2022-09-09T06:36:07;20.70;;;16.33;;
7017;SDS011;3549;42.162;24.726;2022-09-09T06:38:36;24.97;;;16.47;;
7017;SDS011;3549;42.162;24.726;2022-09-09T06:41:02;27.63;;;18.07;;
7017;SDS011;3549;42.162;24.726;2022-09-09T06:43:28;27.17;;;16.97;;
7017;SDS011;3549;42.162;24.726;2022-09-09T06:48:20;19.93;;;16.90;;
7017;SDS011;3549;42.162;24.726;2022-09-09T06:50:46;20.90;;;16.90;;
7017;SDS011;3549;42.162;24.726;2022-09-09T06:53:12;19.27;;;16.30;;
7017;SDS011;3549;42.162;24.726;2022-09-09T06:55:37;20.47;;;15.97;;
7017;SDS011;3549;42.162;24.726;2022-09-09T06:58:08;22.40;;;16.30;;
7017;SDS011;3549;42.162;24.726;2022-09-09T07:00:33;22.13;;;15.77;;
7017;SDS011;3549;42.162;24.726;2022-09-09T07:02:59;21.67;;;16.23;;
7017;SDS011;3549;42.162;24.726;2022-09-09T07:05:24;18.83;;;15.70;;
7017;SDS011;3549;42.162;24.726;2022-09-09T07:07:51;19.83;;;15.67;;
7017;SDS011;3549;42.162;24.726;2022-09-09T07:10:16;19.93;;;14.93;;
7017;SDS011;3549;42.162;24.726;2022-09-09T07:12:42;18.93;;;14.60;;
7017;SDS011;3549;42.162;24.726;2022-09-09T07:15:08;19.33;;;14.43;;
7017;SDS011;3549;42.162;24.726;2022-09-09T07:17:34;18.80;;;15.37;;
7017;SDS011;3549;42.162;24.726;2022-09-09T07:20:00;20.33;;;15.00;;
7017;SDS011;3549;42.162;24.726;2022-09-09T07:22:27;23.90;;;15.80;;
7017;SDS011;3549;42.162;24.726;2022-09-09T07:24:53;19.87;;;15.27;;
7017;SDS011;3549;42.162;24.726;2022-09-09T07:27:18;16.73;;;13.63;;
7017;SDS011;3549;42.162;24.726;2022-09-09T07:29:44;22.97;;;16.87;;
7017;SDS011;3549;42.162;24.726;2022-09-09T07:32:10;24.30;;;15.83;;
7017;SDS011;3549;42.162;24.726;2022-09-09T07:34:36;18.37;;;13.50;;
7017;SDS011;3549;42.162;24.726;2022-09-09T07:37:01;18.60;;;13.00;;
7017;SDS011;3549;42.162;24.726;2022-09-09T07:39:27;17.47;;;13.23;;
7017;SDS011;3549;42.162;24.726;2022-09-09T07:41:53;20.10;;;13.40;;
7017;SDS011;3549;42.162;24.726;2022-09-09T07:44:23;18.33;;;12.77;;
7017;SDS011;3549;42.162;24.726;2022-09-09T07:46:49;15.33;;;12.20;;
7017;SDS011;3549;42.162;24.726;2022-09-09T07:49:15;24.67;;;12.27;;
7017;SDS011;3549;42.162;24.726;2022-09-09T07:51:44;15.97;;;11.83;;
7017;SDS011;3549;42.162;24.726;2022-09-09T07:54:13;20.47;;;12.67;;
7017;SDS011;3549;42.162;24.726;2022-09-09T07:56:40;14.03;;;11.73;;
7017;SDS011;3549;42.162;24.726;2022-09-09T07:59:06;18.23;;;12.20;;
7017;SDS011;3549;42.162;24.726;2022-09-09T08:01:33;13.70;;;11.07;;
7017;SDS011;3549;42.162;24.726;2022-09-09T08:04:04;14.03;;;10.87;;
7017;SDS011;3549;42.162;24.726;2022-09-09T08:06:34;15.57;;;10.80;;
7017;SDS011;3549;42.162;24.726;2022-09-09T08:09:01;17.37;;;10.70;;
7017;SDS011;3549;42.162;24.726;2022-09-09T08:11:29;13.13;;;10.27;;
7017;SDS011;3549;42.162;24.726;2022-09-09T08:13:55;13.90;;;9.20;;
7017;SDS011;3549;42.162;24.726;2022-09-09T08:16:25;12.10;;;9.17;;
7017;SDS011;3549;42.162;24.726;2022-09-09T08:18:55;10.30;;;8.80;;
7017;SDS011;3549;42.162;24.726;2022-09-09T08:21:22;13.17;;;9.03;;
7017;SDS011;3549;42.162;24.726;2022-09-09T08:23:52;11.37;;;8.83;;
7017;SDS011;3549;42.162;24.726;2022-09-09T08:26:22;11.40;;;9.20;;
7017;SDS011;3549;42.162;24.726;2022-09-09T08:28:53;12.30;;;9.03;;
7017;SDS011;3549;42.162;24.726;2022-09-09T08:31:24;11.67;;;9.20;;
7017;SDS011;3549;42.162;24.726;2022-09-09T08:33:53;12.70;;;8.87;;
7017;SDS011;3549;42.162;24.726;2022-09-09T08:36:20;15.17;;;8.97;;
7017;SDS011;3549;42.162;24.726;2022-09-09T08:38:48;12.20;;;8.93;;
7017;SDS011;3549;42.162;24.726;2022-09-09T08:49:46;12.38;;;9.10;;
7017;SDS011;3549;42.162;24.726;2022-09-09T08:52:48;14.00;;;9.20;;
7017;SDS011;3549;42.162;24.726;2022-09-09T08:58:19;13.05;;;9.57;;
7017;SDS011;3549;42.162;24.726;2022-09-09T09:05:48;12.35;;;8.55;;
7017;SDS011;3549;42.162;24.726;2022-09-09T09:11:18;12.55;;;8.85;;
7017;SDS011;3549;42.162;24.726;2022-09-09T09:13:48;15.32;;;9.35;;
7017;SDS011;3549;42.162;24.726;2022-09-09T09:16:32;13.73;;;9.00;;
7017;SDS011;3549;42.162;24.726;2022-09-09T09:19:01;11.63;;;8.88;;
7017;SDS011;3549;42.162;24.726;2022-09-09T09:27:15;13.65;;;9.40;;
7017;SDS011;3549;42.162;24.726;2022-09-09T09:29:45;12.48;;;9.50;;
7017;SDS011;3549;42.162;24.726;2022-09-09T09:32:16;12.40;;;9.30;;
7017;SDS011;3549;42.162;24.726;2022-09-09T09:34:48;9.93;;;8.93;;
7017;SDS011;3549;42.162;24.726;2022-09-09T09:37:31;10.82;;;9.25;;
7017;SDS011;3549;42.162;24.726;2022-09-09T09:40:09;14.45;;;9.80;;
7017;SDS011;3549;42.162;24.726;2022-09-09T09:42:35;16.63;;;10.07;;
7017;SDS011;3549;42.162;24.726;2022-09-09T09:45:07;12.23;;;9.77;;
7017;SDS011;3549;42.162;24.726;2022-09-09T09:47:43;11.85;;;10.10;;
7017;SDS011;3549;42.162;24.726;2022-09-09T09:50:16;14.77;;;9.80;;
7017;SDS011;3549;42.162;24.726;2022-09-09T09:52:51;15.43;;;10.68;;
7017;SDS011;3549;42.162;24.726;2022-09-09T09:55:19;11.77;;;9.77;;
7017;SDS011;3549;42.162;24.726;2022-09-09T09:57:45;13.85;;;10.20;;
7017;SDS011;3549;42.162;24.726;2022-09-09T10:02:44;13.70;;;11.07;;
7017;SDS011;3549;42.162;24.726;2022-09-09T10:05:18;13.90;;;10.93;;
7017;SDS011;3549;42.162;24.726;2022-09-09T10:07:46;14.75;;;11.15;;
7017;SDS011;3549;42.162;24.726;2022-09-09T10:10:27;22.17;;;11.05;;
7017;SDS011;3549;42.162;24.726;2022-09-09T10:18:43;15.35;;;11.07;;
7017;SDS011;3549;42.162;24.726;2022-09-09T10:34:55;13.35;;;11.30;;
7017;SDS011;3549;42.162;24.726;2022-09-09T10:37:46;16.20;;;11.38;;
7017;SDS011;3549;42.162;24.726;2022-09-09T10:42:51;15.85;;;11.82;;
7017;SDS011;3549;42.162;24.726;2022-09-09T10:45:23;20.52;;;12.50;;
7017;SDS011;3549;42.162;24.726;2022-09-09T10:56:08;13.63;;;10.23;;
7017;SDS011;3549;42.162;24.726;2022-09-09T10:58:42;12.18;;;10.98;;
7017;SDS011;3549;42.162;24.726;2022-09-09T11:01:28;14.30;;;10.90;;
7017;SDS011;3549;42.162;24.726;2022-09-09T11:04:01;14.20;;;10.45;;
7017;SDS011;3549;42.162;24.726;2022-09-09T11:06:39;48.08;;;13.27;;
7017;SDS011;3549;42.162;24.726;2022-09-09T11:09:14;12.70;;;10.85;;
7017;SDS011;3549;42.162;24.726;2022-09-09T11:11:46;14.02;;;10.88;;
7017;SDS011;3549;42.162;24.726;2022-09-09T11:14:22;15.00;;;11.07;;
7017;SDS011;3549;42.162;24.726;2022-09-09T11:16:58;13.93;;;10.73;;
7017;SDS011;3549;42.162;24.726;2022-09-09T11:19:38;13.85;;;11.02;;
7017;SDS011;3549;42.162;24.726;2022-09-09T11:27:37;13.18;;;10.85;;
7017;SDS011;3549;42.162;24.726;2022-09-09T11:33:00;13.13;;;9.40;;
7017;SDS011;3549;42.162;24.726;2022-09-09T11:38:46;18.13;;;9.10;;
7017;SDS011;3549;42.162;24.726;2022-09-09T11:41:14;12.07;;;9.23;;
7017;SDS011;3549;42.162;24.726;2022-09-09T11:43:41;11.75;;;8.88;;
7017;SDS011;3549;42.162;24.726;2022-09-09T11:46:10;10.20;;;9.20;;
7017;SDS011;3549;42.162;24.726;2022-09-09T11:48:38;11.48;;;9.05;;
7017;SDS011;3549;42.162;24.726;2022-09-09T11:51:11;10.00;;;8.95;;
7017;SDS011;3549;42.162;24.726;2022-09-09T11:53:47;13.90;;;9.82;;
7017;SDS011;3549;42.162;24.726;2022-09-09T11:56:22;11.65;;;9.20;;
7017;SDS011;3549;42.162;24.726;2022-09-09T11:58:55;11.18;;;8.75;;
7017;SDS011;3549;42.162;24.726;2022-09-09T12:01:30;11.77;;;9.05;;
7017;SDS011;3549;42.162;24.726;2022-09-09T12:06:51;12.27;;;8.38;;
7017;SDS011;3549;42.162;24.726;2022-09-09T12:09:25;10.32;;;8.18;;
7017;SDS011;3549;42.162;24.726;2022-09-09T12:11:52;10.00;;;7.95;;
7017;SDS011;3549;42.162;24.726;2022-09-09T12:14:21;11.65;;;8.30;;
7017;SDS011;3549;42.162;24.726;2022-09-09T12:19:41;13.40;;;8.23;;
7017;SDS011;3549;42.162;24.726;2022-09-09T12:22:15;11.68;;;8.02;;
7017;SDS011;3549;42.162;24.726;2022-09-09T12:27:58;10.52;;;8.63;;
7017;SDS011;3549;42.162;24.726;2022-09-09T12:31:03;13.93;;;8.65;;
7017;SDS011;3549;42.162;24.726;2022-09-09T12:33:45;11.10;;;8.52;;
7017;SDS011;3549;42.162;24.726;2022-09-09T12:36:19;11.52;;;8.65;;
7017;SDS011;3549;42.162;24.726;2022-09-09T12:38:50;10.60;;;8.48;;
7017;SDS011;3549;42.162;24.726;2022-09-09T12:43:50;10.57;;;8.30;;
7017;SDS011;3549;42.162;24.726;2022-09-09T12:52:07;12.00;;;9.35;;
7017;SDS011;3549;42.162;24.726;2022-09-09T12:54:42;13.43;;;8.90;;
7017;SDS011;3549;42.162;24.726;2022-09-09T12:57:11;15.10;;;9.30;;
7017;SDS011;3549;42.162;24.726;2022-09-09T12:59:42;12.02;;;8.85;;
7017;SDS011;3549;42.162;24.726;2022-09-09T13:02:20;13.38;;;9.07;;
7017;SDS011;3549;42.162;24.726;2022-09-09T13:04:47;11.68;;;9.13;;
7017;SDS011;3549;42.162;24.726;2022-09-09T13:07:15;10.18;;;9.10;;
7017;SDS011;3549;42.162;24.726;2022-09-09T13:09:42;11.60;;;9.27;;
7017;SDS011;3549;42.162;24.726;2022-09-09T13:12:15;10.02;;;9.00;;
7017;SDS011;3549;42.162;24.726;2022-09-09T13:14:43;11.85;;;8.90;;
7017;SDS011;3549;42.162;24.726;2022-09-09T13:17:20;11.35;;;9.35;;
7017;SDS011;3549;42.162;24.726;2022-09-09T13:19:47;13.50;;;9.63;;
7017;SDS011;3549;42.162;24.726;2022-09-09T13:22:36;10.32;;;9.18;;
7017;SDS011;3549;42.162;24.726;2022-09-09T13:33:03;10.05;;;8.90;;
7017;SDS011;3549;42.162;24.726;2022-09-09T13:35:28;10.82;;;9.65;;
7017;SDS011;3549;42.162;24.726;2022-09-09T13:37:54;12.45;;;9.23;;
7017;SDS011;3549;42.162;24.726;2022-09-09T13:40:21;12.95;;;9.20;;
7017;SDS011;3549;42.162;24.726;2022-09-09T13:42:50;13.85;;;9.57;;
7017;SDS011;3549;42.162;24.726;2022-09-09T13:45:19;11.18;;;8.80;;
7017;SDS011;3549;42.162;24.726;2022-09-09T13:47:46;11.43;;;9.00;;
7017;SDS011;3549;42.162;24.726;2022-09-09T13:52:44;13.30;;;9.13;;
7017;SDS011;3549;42.162;24.726;2022-09-09T13:55:10;11.90;;;8.82;;
7017;SDS011;3549;42.162;24.726;2022-09-09T13:57:36;13.88;;;9.43;;
7017;SDS011;3549;42.162;24.726;2022-09-09T14:00:01;11.13;;;9.23;;
7017;SDS011;3549;42.162;24.726;2022-09-09T14:02:27;11.20;;;9.63;;
7017;SDS011;3549;42.162;24.726;2022-09-09T14:04:52;12.43;;;9.23;;
7017;SDS011;3549;42.162;24.726;2022-09-09T14:07:20;12.95;;;9.57;;
7017;SDS011;3549;42.162;24.726;2022-09-09T14:09:46;12.10;;;9.38;;
7017;SDS011;3549;42.162;24.726;2022-09-09T14:12:15;12.30;;;9.75;;
7017;SDS011;3549;42.162;24.726;2022-09-09T14:14:41;14.55;;;10.15;;
7017;SDS011;3549;42.162;24.726;2022-09-09T14:17:07;12.43;;;10.27;;
7017;SDS011;3549;42.162;24.726;2022-09-09T14:19:34;15.20;;;10.35;;
7017;SDS011;3549;42.162;24.726;2022-09-09T14:22:00;12.40;;;11.10;;
7017;SDS011;3549;42.162;24.726;2022-09-09T14:24:26;14.10;;;11.20;;
7017;SDS011;3549;42.162;24.726;2022-09-09T14:26:52;15.88;;;10.65;;
7017;SDS011;3549;42.162;24.726;2022-09-09T14:29:18;15.07;;;10.52;;
7017;SDS011;3549;42.162;24.726;2022-09-09T14:31:43;12.52;;;10.52;;
7017;SDS011;3549;42.162;24.726;2022-09-09T14:34:09;11.05;;;9.85;;
7017;SDS011;3549;42.162;24.726;2022-09-09T14:36:35;12.45;;;9.88;;
7017;SDS011;3549;42.162;24.726;2022-09-09T14:39:01;13.73;;;10.30;;
7017;SDS011;3549;42.162;24.726;2022-09-09T14:41:27;13.57;;;10.43;;
7017;SDS011;3549;42.162;24.726;2022-09-09T14:43:54;13.63;;;10.68;;
7017;SDS011;3549;42.162;24.726;2022-09-09T14:46:19;13.38;;;10.55;;
7017;SDS011;3549;42.162;24.726;2022-09-09T14:48:46;11.85;;;10.27;;
7017;SDS011;3549;42.162;24.726;2022-09-09T14:51:17;15.23;;;11.02;;
7017;SDS011;3549;42.162;24.726;2022-09-09T14:53:44;14.95;;;10.52;;
7017;SDS011;3549;42.162;24.726;2022-09-09T14:56:15;17.05;;;11.43;;
7017;SDS011;3549;42.162;24.726;2022-09-09T14:58:42;15.15;;;12.02;;
7017;SDS011;3549;42.162;24.726;2022-09-09T15:01:09;15.25;;;12.00;;
7017;SDS011;3549;42.162;24.726;2022-09-09T15:03:40;15.20;;;12.20;;
7017;SDS011;3549;42.162;24.726;2022-09-09T15:08:34;14.70;;;12.82;;
7017;SDS011;3549;42.162;24.726;2022-09-09T15:11:01;16.17;;;13.02;;
7017;SDS011;3549;42.162;24.726;2022-09-09T15:13:28;15.15;;;12.57;;
7017;SDS011;3549;42.162;24.726;2022-09-09T15:15:53;15.50;;;13.00;;
7017;SDS011;3549;42.162;24.726;2022-09-09T15:18:19;17.10;;;12.43;;
7017;SDS011;3549;42.162;24.726;2022-09-09T15:20:46;15.45;;;12.70;;
7017;SDS011;3549;42.162;24.726;2022-09-09T15:23:12;15.48;;;12.32;;
7017;SDS011;3549;42.162;24.726;2022-09-09T15:25:39;17.15;;;12.07;;
7017;SDS011;3549;42.162;24.726;2022-09-09T15:28:15;15.57;;;12.15;;
7017;SDS011;3549;42.162;24.726;2022-09-09T15:30:40;19.60;;;12.30;;
7017;SDS011;3549;42.162;24.726;2022-09-09T15:33:09;16.23;;;11.65;;
7017;SDS011;3549;42.162;24.726;2022-09-09T15:35:34;14.85;;;11.38;;
7017;SDS011;3549;42.162;24.726;2022-09-09T15:38:01;14.82;;;11.85;;
7017;SDS011;3549;42.162;24.726;2022-09-09T15:40:30;16.55;;;11.48;;
7017;SDS011;3549;42.162;24.726;2022-09-09T15:42:57;12.65;;;10.70;;
7017;SDS011;3549;42.162;24.726;2022-09-09T15:45:23;15.93;;;10.73;;
7017;SDS011;3549;42.162;24.726;2022-09-09T15:47:48;13.82;;;10.88;;
7017;SDS011;3549;42.162;24.726;2022-09-09T15:50:14;12.90;;;10.15;;
7017;SDS011;3549;42.162;24.726;2022-09-09T15:52:39;13.10;;;11.05;;
7017;SDS011;3549;42.162;24.726;2022-09-09T15:55:05;14.80;;;10.25;;
7017;SDS011;3549;42.162;24.726;2022-09-09T15:57:31;12.65;;;10.20;;
7017;SDS011;3549;42.162;24.726;2022-09-09T15:59:56;11.20;;;10.05;;
7017;SDS011;3549;42.162;24.726;2022-09-09T16:02:22;15.48;;;10.57;;
7017;SDS011;3549;42.162;24.726;2022-09-09T16:04:47;13.07;;;10.10;;
7017;SDS011;3549;42.162;24.726;2022-09-09T16:07:12;12.77;;;9.48;;
7017;SDS011;3549;42.162;24.726;2022-09-09T16:09:38;15.10;;;10.30;;
7017;SDS011;3549;42.162;24.726;2022-09-09T16:12:04;13.05;;;10.13;;
7017;SDS011;3549;42.162;24.726;2022-09-09T16:14:36;13.70;;;10.45;;
7017;SDS011;3549;42.162;24.726;2022-09-09T16:17:04;12.95;;;9.90;;
7017;SDS011;3549;42.162;24.726;2022-09-09T16:19:30;14.43;;;10.10;;
7017;SDS011;3549;42.162;24.726;2022-09-09T16:21:56;12.70;;;9.75;;
7017;SDS011;3549;42.162;24.726;2022-09-09T16:24:22;20.33;;;9.98;;
7017;SDS011;3549;42.162;24.726;2022-09-09T16:26:50;12.82;;;9.82;;
7017;SDS011;3549;42.162;24.726;2022-09-09T16:29:17;12.93;;;10.18;;
7017;SDS011;3549;42.162;24.726;2022-09-09T16:31:44;15.07;;;10.32;;
7017;SDS011;3549;42.162;24.726;2022-09-09T16:34:11;15.55;;;10.30;;
7017;SDS011;3549;42.162;24.726;2022-09-09T16:36:37;13.07;;;9.57;;
7017;SDS011;3549;42.162;24.726;2022-09-09T16:39:05;13.18;;;10.02;;
7017;SDS011;3549;42.162;24.726;2022-09-09T16:41:33;15.70;;;10.02;;
7017;SDS011;3549;42.162;24.726;2022-09-09T16:44:00;11.50;;;9.63;;
7017;SDS011;3549;42.162;24.726;2022-09-09T16:46:28;16.08;;;10.43;;
7017;SDS011;3549;42.162;24.726;2022-09-09T16:48:58;13.00;;;10.30;;
7017;SDS011;3549;42.162;24.726;2022-09-09T16:51:29;16.48;;;10.25;;
7017;SDS011;3549;42.162;24.726;2022-09-09T16:54:03;15.07;;;10.05;;
7017;SDS011;3549;42.162;24.726;2022-09-09T16:56:31;16.35;;;10.80;;
7017;SDS011;3549;42.162;24.726;2022-09-09T16:59:02;19.10;;;10.63;;
7017;SDS011;3549;42.162;24.726;2022-09-09T17:01:31;16.73;;;9.90;;
7017;SDS011;3549;42.162;24.726;2022-09-09T17:04:01;18.20;;;10.63;;
7017;SDS011;3549;42.162;24.726;2022-09-09T17:06:28;20.02;;;11.02;;
7017;SDS011;3549;42.162;24.726;2022-09-09T17:08:59;21.08;;;10.77;;
7017;SDS011;3549;42.162;24.726;2022-09-09T17:11:26;14.77;;;10.73;;
7017;SDS011;3549;42.162;24.726;2022-09-09T17:13:54;24.30;;;13.13;;
7017;SDS011;3549;42.162;24.726;2022-09-09T17:16:20;27.98;;;15.80;;
7017;SDS011;3549;42.162;24.726;2022-09-09T17:18:47;33.63;;;17.45;;
7017;SDS011;3549;42.162;24.726;2022-09-09T17:21:17;21.40;;;13.10;;
7017;SDS011;3549;42.162;24.726;2022-09-09T17:23:52;21.27;;;12.30;;